sensor_id;sensor_type;location;lat;lon;timestamp;P1;durP1;ratioP1;P2;durP2;ratioP2
19251;SDS011;9760;50.944;5.304;2023-02-24T00:01:18;18.50;;;6.67;;
19251;SDS011;9760;50.944;5.304;2023-02-24T00:03:51;31.13;;;6.97;;
19251;SDS011;9760;50.944;5.304;2023-02-24T00:06:17;27.57;;;6.50;;
19251;SDS011;9760;50.944;5.304;2023-02-24T00:08:42;24.90;;;6.07;;
19251;SDS011;9760;50.944;5.304;2023-02-24T00:11:12;21.07;;;5.17;;
19251;SDS011;9760;50.944;5.304;2023-02-24T00:13:39;17.67;;;4.93;;
19251;SDS011;9760;50.944;5.304;2023-02-24T00:16:05;25.33;;;5.07;;
19251;SDS011;9760;50.944;5.304;2023-02-24T00:18:31;27.17;;;5.90;;
19251;SDS011;9760;50.944;5.304;2023-02-24T00:21:04;20.53;;;4.67;;
19251;SDS011;9760;50.944;5.304;2023-02-24T00:23:32;16.93;;;4.33;;
19251;SDS011;9760;50.944;5.304;2023-02-24T00:26:00;24.97;;;5.23;;
19251;SDS011;9760;50.944;5.304;2023-02-24T00:28:26;22.30;;;4.50;;
19251;SDS011;9760;50.944;5.304;2023-02-24T00:30:53;19.73;;;4.40;;
19251;SDS011;9760;50.944;5.304;2023-02-24T00:33:22;29.40;;;4.13;;
19251;SDS011;9760;50.944;5.304;2023-02-24T00:35:48;17.67;;;3.57;;
19251;SDS011;9760;50.944;5.304;2023-02-24T00:38:15;22.77;;;3.87;;
19251;SDS011;9760;50.944;5.304;2023-02-24T00:40:41;17.20;;;3.97;;
19251;SDS011;9760;50.944;5.304;2023-02-24T00:43:12;21.13;;;4.03;;
19251;SDS011;9760;50.944;5.304;2023-02-24T00:45:38;18.13;;;4.23;;
19251;SDS011;9760;50.944;5.304;2023-02-24T00:48:04;18.20;;;3.80;;
19251;SDS011;9760;50.944;5.304;2023-02-24T00:50:30;18.90;;;3.90;;
19251;SDS011;9760;50.944;5.304;2023-02-24T00:52:56;26.50;;;4.57;;
19251;SDS011;9760;50.944;5.304;2023-02-24T00:55:22;20.53;;;3.90;;
19251;SDS011;9760;50.944;5.304;2023-02-24T00:57:48;17.07;;;4.43;;
19251;SDS011;9760;50.944;5.304;2023-02-24T01:00:16;16.33;;;4.30;;
19251;SDS011;9760;50.944;5.304;2023-02-24T01:02:43;19.83;;;4.13;;
19251;SDS011;9760;50.944;5.304;2023-02-24T01:05:11;15.80;;;4.23;;
19251;SDS011;9760;50.944;5.304;2023-02-24T01:07:37;36.50;;;5.20;;
19251;SDS011;9760;50.944;5.304;2023-02-24T01:10:03;13.33;;;4.00;;
19251;SDS011;9760;50.944;5.304;2023-02-24T01:12:32;27.83;;;4.87;;
19251;SDS011;9760;50.944;5.304;2023-02-24T01:15:24;25.23;;;3.93;;
19251;SDS011;9760;50.944;5.304;2023-02-24T01:17:50;25.10;;;3.60;;
19251;SDS011;9760;50.944;5.304;2023-02-24T01:20:16;16.93;;;3.93;;
19251;SDS011;9760;50.944;5.304;2023-02-24T01:22:51;21.10;;;3.93;;
19251;SDS011;9760;50.944;5.304;2023-02-24T01:25:17;25.47;;;3.93;;
19251;SDS011;9760;50.944;5.304;2023-02-24T01:27:44;18.50;;;3.47;;
19251;SDS011;9760;50.944;5.304;2023-02-24T01:30:10;21.77;;;4.33;;
19251;SDS011;9760;50.944;5.304;2023-02-24T01:32:39;28.53;;;3.73;;
19251;SDS011;9760;50.944;5.304;2023-02-24T01:35:08;20.03;;;3.57;;
19251;SDS011;9760;50.944;5.304;2023-02-24T01:37:36;25.63;;;3.43;;
19251;SDS011;9760;50.944;5.304;2023-02-24T01:40:02;19.90;;;3.33;;
19251;SDS011;9760;50.944;5.304;2023-02-24T01:42:35;31.80;;;3.73;;
19251;SDS011;9760;50.944;5.304;2023-02-24T01:45:05;20.50;;;3.20;;
19251;SDS011;9760;50.944;5.304;2023-02-24T01:47:37;22.53;;;4.00;;
19251;SDS011;9760;50.944;5.304;2023-02-24T01:50:03;38.57;;;4.17;;
19251;SDS011;9760;50.944;5.304;2023-02-24T01:52:30;16.00;;;3.20;;
19251;SDS011;9760;50.944;5.304;2023-02-24T01:55:03;28.70;;;3.30;;
19251;SDS011;9760;50.944;5.304;2023-02-24T01:57:40;25.07;;;3.37;;
19251;SDS011;9760;50.944;5.304;2023-02-24T02:00:07;22.80;;;3.50;;
19251;SDS011;9760;50.944;5.304;2023-02-24T02:02:35;31.90;;;4.03;;
19251;SDS011;9760;50.944;5.304;2023-02-24T02:05:07;24.67;;;3.70;;
19251;SDS011;9760;50.944;5.304;2023-02-24T02:07:34;22.13;;;3.67;;
19251;SDS011;9760;50.944;5.304;2023-02-24T02:10:03;27.77;;;4.50;;
19251;SDS011;9760;50.944;5.304;2023-02-24T02:12:33;25.50;;;3.13;;
19251;SDS011;9760;50.944;5.304;2023-02-24T02:15:02;37.70;;;5.20;;
19251;SDS011;9760;50.944;5.304;2023-02-24T02:17:38;28.90;;;4.80;;
19251;SDS011;9760;50.944;5.304;2023-02-24T02:31:43;27.13;;;3.40;;
19251;SDS011;9760;50.944;5.304;2023-02-24T02:34:49;28.90;;;3.50;;
19251;SDS011;9760;50.944;5.304;2023-02-24T02:37:35;29.73;;;3.70;;
19251;SDS011;9760;50.944;5.304;2023-02-24T02:40:14;26.77;;;3.53;;
19251;SDS011;9760;50.944;5.304;2023-02-24T02:43:03;21.83;;;3.10;;
19251;SDS011;9760;50.944;5.304;2023-02-24T02:45:48;24.27;;;3.53;;
19251;SDS011;9760;50.944;5.304;2023-02-24T02:48:31;19.57;;;3.50;;
19251;SDS011;9760;50.944;5.304;2023-02-24T02:51:17;41.30;;;4.63;;
19251;SDS011;9760;50.944;5.304;2023-02-24T02:54:00;24.23;;;4.03;;
19251;SDS011;9760;50.944;5.304;2023-02-24T02:56:42;30.50;;;3.73;;
19251;SDS011;9760;50.944;5.304;2023-02-24T02:59:18;21.83;;;3.67;;
19251;SDS011;9760;50.944;5.304;2023-02-24T03:01:48;25.80;;;4.00;;
19251;SDS011;9760;50.944;5.304;2023-02-24T03:04:16;17.70;;;3.33;;
19251;SDS011;9760;50.944;5.304;2023-02-24T03:06:48;36.33;;;4.60;;
19251;SDS011;9760;50.944;5.304;2023-02-24T03:09:23;26.43;;;4.53;;
19251;SDS011;9760;50.944;5.304;2023-02-24T03:11:54;27.57;;;3.67;;
19251;SDS011;9760;50.944;5.304;2023-02-24T03:14:26;26.07;;;4.03;;
19251;SDS011;9760;50.944;5.304;2023-02-24T03:16:55;21.20;;;4.37;;
19251;SDS011;9760;50.944;5.304;2023-02-24T03:19:25;25.97;;;3.67;;
19251;SDS011;9760;50.944;5.304;2023-02-24T03:22:00;21.23;;;3.30;;
19251;SDS011;9760;50.944;5.304;2023-02-24T03:24:31;24.10;;;4.83;;
19251;SDS011;9760;50.944;5.304;2023-02-24T03:27:10;19.53;;;3.20;;
19251;SDS011;9760;50.944;5.304;2023-02-24T03:29:46;16.83;;;2.70;;
19251;SDS011;9760;50.944;5.304;2023-02-24T03:32:19;29.67;;;4.53;;
19251;SDS011;9760;50.944;5.304;2023-02-24T03:37:37;30.17;;;3.80;;
19251;SDS011;9760;50.944;5.304;2023-02-24T03:40:09;43.03;;;3.67;;
19251;SDS011;9760;50.944;5.304;2023-02-24T03:42:41;28.60;;;4.43;;
19251;SDS011;9760;50.944;5.304;2023-02-24T03:45:09;27.20;;;3.70;;
19251;SDS011;9760;50.944;5.304;2023-02-24T03:47:35;27.57;;;3.70;;
19251;SDS011;9760;50.944;5.304;2023-02-24T03:50:06;29.23;;;3.93;;
19251;SDS011;9760;50.944;5.304;2023-02-24T03:52:52;22.63;;;4.53;;
19251;SDS011;9760;50.944;5.304;2023-02-24T04:01:04;20.97;;;3.83;;
19251;SDS011;9760;50.944;5.304;2023-02-24T04:14:49;25.03;;;3.60;;
19251;SDS011;9760;50.944;5.304;2023-02-24T04:17:21;25.53;;;4.23;;
19251;SDS011;9760;50.944;5.304;2023-02-24T04:19:55;22.10;;;3.70;;
19251;SDS011;9760;50.944;5.304;2023-02-24T04:22:25;22.23;;;3.63;;
19251;SDS011;9760;50.944;5.304;2023-02-24T04:24:55;14.67;;;3.23;;
19251;SDS011;9760;50.944;5.304;2023-02-24T04:27:23;16.13;;;3.53;;
19251;SDS011;9760;50.944;5.304;2023-02-24T04:29:53;26.13;;;3.57;;
19251;SDS011;9760;50.944;5.304;2023-02-24T04:32:25;20.07;;;3.03;;
19251;SDS011;9760;50.944;5.304;2023-02-24T04:34:59;18.20;;;3.17;;
19251;SDS011;9760;50.944;5.304;2023-02-24T04:37:30;22.73;;;3.67;;
19251;SDS011;9760;50.944;5.304;2023-02-24T04:39:59;18.00;;;2.93;;
19251;SDS011;9760;50.944;5.304;2023-02-24T04:42:26;23.67;;;3.17;;
19251;SDS011;9760;50.944;5.304;2023-02-24T04:44:52;17.37;;;3.00;;
19251;SDS011;9760;50.944;5.304;2023-02-24T04:47:18;30.73;;;3.50;;
19251;SDS011;9760;50.944;5.304;2023-02-24T04:49:44;19.63;;;2.97;;
19251;SDS011;9760;50.944;5.304;2023-02-24T04:52:10;27.87;;;3.37;;
19251;SDS011;9760;50.944;5.304;2023-02-24T04:54:36;26.00;;;3.43;;
19251;SDS011;9760;50.944;5.304;2023-02-24T04:57:02;21.07;;;3.50;;
19251;SDS011;9760;50.944;5.304;2023-02-24T04:59:31;20.13;;;3.20;;
19251;SDS011;9760;50.944;5.304;2023-02-24T05:01:56;19.57;;;3.37;;
19251;SDS011;9760;50.944;5.304;2023-02-24T05:04:25;14.67;;;3.07;;
19251;SDS011;9760;50.944;5.304;2023-02-24T05:06:54;20.63;;;3.37;;
19251;SDS011;9760;50.944;5.304;2023-02-24T05:09:21;24.70;;;3.90;;
19251;SDS011;9760;50.944;5.304;2023-02-24T05:11:48;18.17;;;3.60;;
19251;SDS011;9760;50.944;5.304;2023-02-24T05:14:16;23.10;;;3.20;;
19251;SDS011;9760;50.944;5.304;2023-02-24T05:16:45;20.13;;;3.13;;
19251;SDS011;9760;50.944;5.304;2023-02-24T05:19:16;18.50;;;3.70;;
19251;SDS011;9760;50.944;5.304;2023-02-24T05:22:01;29.47;;;4.47;;
19251;SDS011;9760;50.944;5.304;2023-02-24T05:24:29;22.03;;;3.50;;
19251;SDS011;9760;50.944;5.304;2023-02-24T05:26:55;23.20;;;3.30;;
19251;SDS011;9760;50.944;5.304;2023-02-24T05:29:23;23.40;;;3.50;;
19251;SDS011;9760;50.944;5.304;2023-02-24T05:31:50;21.03;;;4.43;;
19251;SDS011;9760;50.944;5.304;2023-02-24T05:34:18;20.37;;;3.30;;
19251;SDS011;9760;50.944;5.304;2023-02-24T05:36:44;18.37;;;3.87;;
19251;SDS011;9760;50.944;5.304;2023-02-24T05:39:10;25.80;;;4.07;;
19251;SDS011;9760;50.944;5.304;2023-02-24T05:41:43;37.67;;;5.47;;
19251;SDS011;9760;50.944;5.304;2023-02-24T05:44:13;18.47;;;4.40;;
19251;SDS011;9760;50.944;5.304;2023-02-24T05:46:47;31.23;;;4.47;;
19251;SDS011;9760;50.944;5.304;2023-02-24T05:49:19;19.27;;;4.17;;
19251;SDS011;9760;50.944;5.304;2023-02-24T05:51:51;20.93;;;4.53;;
19251;SDS011;9760;50.944;5.304;2023-02-24T05:54:25;25.60;;;4.47;;
19251;SDS011;9760;50.944;5.304;2023-02-24T05:56:59;26.50;;;4.70;;
19251;SDS011;9760;50.944;5.304;2023-02-24T05:59:33;31.17;;;4.07;;
19251;SDS011;9760;50.944;5.304;2023-02-24T06:02:01;25.30;;;4.50;;
19251;SDS011;9760;50.944;5.304;2023-02-24T06:04:33;25.47;;;4.47;;
19251;SDS011;9760;50.944;5.304;2023-02-24T06:07:12;18.17;;;4.30;;
19251;SDS011;9760;50.944;5.304;2023-02-24T06:09:42;30.47;;;4.73;;
19251;SDS011;9760;50.944;5.304;2023-02-24T06:12:14;32.73;;;5.00;;
19251;SDS011;9760;50.944;5.304;2023-02-24T06:14:41;18.33;;;4.10;;
19251;SDS011;9760;50.944;5.304;2023-02-24T06:17:07;28.23;;;4.60;;
19251;SDS011;9760;50.944;5.304;2023-02-24T06:19:32;21.10;;;3.83;;
19251;SDS011;9760;50.944;5.304;2023-02-24T06:21:58;20.53;;;4.90;;
19251;SDS011;9760;50.944;5.304;2023-02-24T06:24:28;25.33;;;4.03;;
19251;SDS011;9760;50.944;5.304;2023-02-24T06:26:55;21.07;;;4.17;;
19251;SDS011;9760;50.944;5.304;2023-02-24T06:29:33;32.20;;;5.10;;
19251;SDS011;9760;50.944;5.304;2023-02-24T06:32:00;25.27;;;4.00;;
19251;SDS011;9760;50.944;5.304;2023-02-24T06:34:32;22.53;;;4.53;;
19251;SDS011;9760;50.944;5.304;2023-02-24T06:36:58;22.13;;;4.63;;
19251;SDS011;9760;50.944;5.304;2023-02-24T06:39:24;25.33;;;5.00;;
19251;SDS011;9760;50.944;5.304;2023-02-24T06:41:49;21.37;;;4.23;;
19251;SDS011;9760;50.944;5.304;2023-02-24T06:44:16;37.77;;;4.97;;
19251;SDS011;9760;50.944;5.304;2023-02-24T06:46:43;31.97;;;4.90;;
19251;SDS011;9760;50.944;5.304;2023-02-24T06:49:10;12.40;;;3.50;;
19251;SDS011;9760;50.944;5.304;2023-02-24T06:51:36;20.80;;;3.83;;
19251;SDS011;9760;50.944;5.304;2023-02-24T06:54:03;22.30;;;3.83;;
19251;SDS011;9760;50.944;5.304;2023-02-24T06:56:30;18.70;;;3.43;;
19251;SDS011;9760;50.944;5.304;2023-02-24T06:59:02;24.20;;;4.77;;
19251;SDS011;9760;50.944;5.304;2023-02-24T07:01:31;26.00;;;3.87;;
19251;SDS011;9760;50.944;5.304;2023-02-24T07:03:58;25.10;;;5.47;;
19251;SDS011;9760;50.944;5.304;2023-02-24T07:06:45;29.73;;;4.13;;
19251;SDS011;9760;50.944;5.304;2023-02-24T07:09:15;26.07;;;4.17;;
19251;SDS011;9760;50.944;5.304;2023-02-24T07:11:43;19.63;;;4.90;;
19251;SDS011;9760;50.944;5.304;2023-02-24T07:14:11;22.93;;;4.53;;
19251;SDS011;9760;50.944;5.304;2023-02-24T07:16:37;18.33;;;3.43;;
19251;SDS011;9760;50.944;5.304;2023-02-24T07:19:06;21.33;;;4.77;;
19251;SDS011;9760;50.944;5.304;2023-02-24T07:21:38;26.30;;;4.93;;
19251;SDS011;9760;50.944;5.304;2023-02-24T07:24:08;29.67;;;5.47;;
19251;SDS011;9760;50.944;5.304;2023-02-24T07:26:37;15.10;;;4.53;;
19251;SDS011;9760;50.944;5.304;2023-02-24T07:29:08;23.63;;;5.13;;
19251;SDS011;9760;50.944;5.304;2023-02-24T07:31:35;25.13;;;4.47;;
19251;SDS011;9760;50.944;5.304;2023-02-24T07:34:02;18.00;;;4.10;;
19251;SDS011;9760;50.944;5.304;2023-02-24T07:36:28;36.63;;;5.90;;
19251;SDS011;9760;50.944;5.304;2023-02-24T07:38:55;19.30;;;4.13;;
19251;SDS011;9760;50.944;5.304;2023-02-24T07:41:22;22.83;;;4.93;;
19251;SDS011;9760;50.944;5.304;2023-02-24T07:43:50;17.03;;;4.20;;
19251;SDS011;9760;50.944;5.304;2023-02-24T07:46:19;20.47;;;4.37;;
19251;SDS011;9760;50.944;5.304;2023-02-24T07:48:48;20.33;;;4.17;;
19251;SDS011;9760;50.944;5.304;2023-02-24T07:51:16;15.00;;;4.37;;
19251;SDS011;9760;50.944;5.304;2023-02-24T07:53:43;16.20;;;4.90;;
19251;SDS011;9760;50.944;5.304;2023-02-24T07:56:12;19.43;;;4.40;;
19251;SDS011;9760;50.944;5.304;2023-02-24T07:58:50;23.03;;;4.87;;
19251;SDS011;9760;50.944;5.304;2023-02-24T08:01:23;23.53;;;5.30;;
19251;SDS011;9760;50.944;5.304;2023-02-24T08:03:53;24.30;;;4.77;;
19251;SDS011;9760;50.944;5.304;2023-02-24T08:06:25;20.93;;;4.80;;
19251;SDS011;9760;50.944;5.304;2023-02-24T08:09:03;25.33;;;5.23;;
19251;SDS011;9760;50.944;5.304;2023-02-24T08:11:49;20.40;;;4.43;;
19251;SDS011;9760;50.944;5.304;2023-02-24T08:14:19;15.83;;;4.20;;
19251;SDS011;9760;50.944;5.304;2023-02-24T08:16:51;25.90;;;5.53;;
19251;SDS011;9760;50.944;5.304;2023-02-24T08:19:23;23.17;;;4.60;;
19251;SDS011;9760;50.944;5.304;2023-02-24T08:21:57;22.30;;;4.47;;
19251;SDS011;9760;50.944;5.304;2023-02-24T08:24:43;24.10;;;4.53;;
19251;SDS011;9760;50.944;5.304;2023-02-24T08:27:15;23.33;;;4.17;;
19251;SDS011;9760;50.944;5.304;2023-02-24T08:29:44;18.27;;;4.57;;
19251;SDS011;9760;50.944;5.304;2023-02-24T08:34:58;25.23;;;4.70;;
19251;SDS011;9760;50.944;5.304;2023-02-24T08:37:30;22.00;;;3.97;;
19251;SDS011;9760;50.944;5.304;2023-02-24T08:40:03;21.53;;;4.80;;
19251;SDS011;9760;50.944;5.304;2023-02-24T08:42:31;18.93;;;4.70;;
19251;SDS011;9760;50.944;5.304;2023-02-24T08:45:00;17.63;;;4.93;;
19251;SDS011;9760;50.944;5.304;2023-02-24T08:47:26;16.00;;;3.73;;
19251;SDS011;9760;50.944;5.304;2023-02-24T08:49:58;23.10;;;3.63;;
19251;SDS011;9760;50.944;5.304;2023-02-24T08:52:30;16.07;;;3.90;;
19251;SDS011;9760;50.944;5.304;2023-02-24T08:54:58;22.57;;;5.13;;
19251;SDS011;9760;50.944;5.304;2023-02-24T08:57:26;14.37;;;3.93;;
19251;SDS011;9760;50.944;5.304;2023-02-24T08:59:52;26.20;;;4.23;;
19251;SDS011;9760;50.944;5.304;2023-02-24T09:02:22;21.83;;;4.67;;
19251;SDS011;9760;50.944;5.304;2023-02-24T09:07:24;22.87;;;4.90;;
19251;SDS011;9760;50.944;5.304;2023-02-24T09:09:52;23.07;;;4.47;;
19251;SDS011;9760;50.944;5.304;2023-02-24T09:12:20;18.10;;;3.80;;
19251;SDS011;9760;50.944;5.304;2023-02-24T09:14:53;19.67;;;4.83;;
19251;SDS011;9760;50.944;5.304;2023-02-24T09:17:22;22.47;;;4.47;;
19251;SDS011;9760;50.944;5.304;2023-02-24T09:20:17;15.23;;;3.57;;
19251;SDS011;9760;50.944;5.304;2023-02-24T09:23:03;37.77;;;4.70;;
19251;SDS011;9760;50.944;5.304;2023-02-24T09:25:36;17.10;;;4.30;;
19251;SDS011;9760;50.944;5.304;2023-02-24T09:28:12;15.33;;;3.93;;
19251;SDS011;9760;50.944;5.304;2023-02-24T09:30:59;29.30;;;4.40;;
19251;SDS011;9760;50.944;5.304;2023-02-24T09:33:35;28.30;;;3.80;;
19251;SDS011;9760;50.944;5.304;2023-02-24T09:38:37;22.97;;;4.17;;
19251;SDS011;9760;50.944;5.304;2023-02-24T09:52:20;23.03;;;4.30;;
19251;SDS011;9760;50.944;5.304;2023-02-24T09:55:04;20.37;;;3.87;;
19251;SDS011;9760;50.944;5.304;2023-02-24T10:01:38;17.30;;;3.50;;
19251;SDS011;9760;50.944;5.304;2023-02-24T10:12:48;19.23;;;3.20;;
19251;SDS011;9760;50.944;5.304;2023-02-24T10:15:20;20.23;;;3.17;;
19251;SDS011;9760;50.944;5.304;2023-02-24T10:18:24;18.63;;;3.27;;
19251;SDS011;9760;50.944;5.304;2023-02-24T10:23:46;18.87;;;3.17;;
19251;SDS011;9760;50.944;5.304;2023-02-24T10:35:20;16.63;;;2.67;;
19251;SDS011;9760;50.944;5.304;2023-02-24T10:37:50;24.20;;;3.47;;
19251;SDS011;9760;50.944;5.304;2023-02-24T10:40:16;25.00;;;3.67;;
19251;SDS011;9760;50.944;5.304;2023-02-24T10:42:50;19.30;;;3.40;;
19251;SDS011;9760;50.944;5.304;2023-02-24T10:45:28;19.13;;;3.20;;
19251;SDS011;9760;50.944;5.304;2023-02-24T10:47:56;15.53;;;3.67;;
19251;SDS011;9760;50.944;5.304;2023-02-24T10:50:27;19.67;;;3.53;;
19251;SDS011;9760;50.944;5.304;2023-02-24T10:53:04;14.30;;;2.73;;
19251;SDS011;9760;50.944;5.304;2023-02-24T10:58:14;11.27;;;2.53;;
19251;SDS011;9760;50.944;5.304;2023-02-24T11:00:51;14.50;;;2.63;;
19251;SDS011;9760;50.944;5.304;2023-02-24T11:03:40;15.77;;;2.67;;
19251;SDS011;9760;50.944;5.304;2023-02-24T11:06:37;19.87;;;3.03;;
19251;SDS011;9760;50.944;5.304;2023-02-24T11:09:18;19.30;;;4.00;;
19251;SDS011;9760;50.944;5.304;2023-02-24T11:11:51;15.53;;;3.20;;
19251;SDS011;9760;50.944;5.304;2023-02-24T11:17:45;23.57;;;3.20;;
19251;SDS011;9760;50.944;5.304;2023-02-24T11:20:27;15.00;;;2.50;;
19251;SDS011;9760;50.944;5.304;2023-02-24T11:22:57;15.07;;;2.67;;
19251;SDS011;9760;50.944;5.304;2023-02-24T11:25:39;19.90;;;3.10;;
19251;SDS011;9760;50.944;5.304;2023-02-24T11:42:03;19.63;;;2.87;;
19251;SDS011;9760;50.944;5.304;2023-02-24T11:47:06;8.53;;;2.70;;
19251;SDS011;9760;50.944;5.304;2023-02-24T11:49:43;12.57;;;2.63;;
19251;SDS011;9760;50.944;5.304;2023-02-24T11:52:19;11.17;;;2.60;;
19251;SDS011;9760;50.944;5.304;2023-02-24T11:54:56;17.17;;;3.97;;
19251;SDS011;9760;50.944;5.304;2023-02-24T12:02:46;10.40;;;2.77;;
19251;SDS011;9760;50.944;5.304;2023-02-24T12:05:35;13.57;;;2.87;;
19251;SDS011;9760;50.944;5.304;2023-02-24T12:10:45;17.80;;;3.43;;
19251;SDS011;9760;50.944;5.304;2023-02-24T12:15:55;19.23;;;2.80;;
19251;SDS011;9760;50.944;5.304;2023-02-24T12:18:25;13.67;;;2.67;;
19251;SDS011;9760;50.944;5.304;2023-02-24T12:21:01;25.37;;;2.67;;
19251;SDS011;9760;50.944;5.304;2023-02-24T12:23:36;7.77;;;2.50;;
19251;SDS011;9760;50.944;5.304;2023-02-24T12:34:41;13.03;;;2.60;;
19251;SDS011;9760;50.944;5.304;2023-02-24T12:45:46;19.43;;;2.90;;
19251;SDS011;9760;50.944;5.304;2023-02-24T12:49:06;19.97;;;3.17;;
19251;SDS011;9760;50.944;5.304;2023-02-24T12:59:42;16.33;;;3.50;;
19251;SDS011;9760;50.944;5.304;2023-02-24T13:02:23;14.37;;;3.97;;
19251;SDS011;9760;50.944;5.304;2023-02-24T13:05:08;18.57;;;3.70;;
19251;SDS011;9760;50.944;5.304;2023-02-24T13:07:49;15.53;;;3.13;;
19251;SDS011;9760;50.944;5.304;2023-02-24T13:10:43;15.60;;;3.10;;
19251;SDS011;9760;50.944;5.304;2023-02-24T13:13:30;10.30;;;2.90;;
19251;SDS011;9760;50.944;5.304;2023-02-24T13:16:04;13.20;;;2.83;;
19251;SDS011;9760;50.944;5.304;2023-02-24T13:18:30;12.67;;;2.60;;
19251;SDS011;9760;50.944;5.304;2023-02-24T13:23:41;8.70;;;2.53;;
19251;SDS011;9760;50.944;5.304;2023-02-24T13:26:25;14.77;;;3.00;;
19251;SDS011;9760;50.944;5.304;2023-02-24T13:28:59;10.50;;;2.47;;
19251;SDS011;9760;50.944;5.304;2023-02-24T13:31:37;11.17;;;2.80;;
19251;SDS011;9760;50.944;5.304;2023-02-24T13:34:11;6.87;;;2.83;;
19251;SDS011;9760;50.944;5.304;2023-02-24T13:36:57;11.63;;;3.40;;
19251;SDS011;9760;50.944;5.304;2023-02-24T13:39:33;13.87;;;3.70;;
19251;SDS011;9760;50.944;5.304;2023-02-24T13:42:05;13.17;;;3.73;;
19251;SDS011;9760;50.944;5.304;2023-02-24T13:44:52;14.27;;;2.83;;
19251;SDS011;9760;50.944;5.304;2023-02-24T13:56:13;15.40;;;3.17;;
19251;SDS011;9760;50.944;5.304;2023-02-24T14:01:44;10.37;;;3.60;;
19251;SDS011;9760;50.944;5.304;2023-02-24T14:04:49;14.90;;;3.13;;
19251;SDS011;9760;50.944;5.304;2023-02-24T14:07:17;13.63;;;3.50;;
19251;SDS011;9760;50.944;5.304;2023-02-24T14:09:53;14.27;;;3.80;;
19251;SDS011;9760;50.944;5.304;2023-02-24T14:12:29;20.70;;;3.87;;
19251;SDS011;9760;50.944;5.304;2023-02-24T14:14:58;15.63;;;3.67;;
19251;SDS011;9760;50.944;5.304;2023-02-24T14:17:26;11.53;;;3.50;;
19251;SDS011;9760;50.944;5.304;2023-02-24T14:22:33;16.17;;;3.97;;
19251;SDS011;9760;50.944;5.304;2023-02-24T14:25:00;16.40;;;4.40;;
19251;SDS011;9760;50.944;5.304;2023-02-24T14:27:26;18.80;;;3.80;;
19251;SDS011;9760;50.944;5.304;2023-02-24T14:29:52;13.70;;;3.87;;
19251;SDS011;9760;50.944;5.304;2023-02-24T14:32:19;17.97;;;4.20;;
19251;SDS011;9760;50.944;5.304;2023-02-24T14:34:46;16.77;;;4.53;;
19251;SDS011;9760;50.944;5.304;2023-02-24T14:37:12;15.03;;;4.40;;
19251;SDS011;9760;50.944;5.304;2023-02-24T14:39:48;23.47;;;5.13;;
19251;SDS011;9760;50.944;5.304;2023-02-24T14:42:18;18.30;;;4.27;;
19251;SDS011;9760;50.944;5.304;2023-02-24T14:44:51;18.93;;;5.00;;
19251;SDS011;9760;50.944;5.304;2023-02-24T14:47:21;13.23;;;4.70;;
19251;SDS011;9760;50.944;5.304;2023-02-24T14:49:56;20.67;;;4.57;;
19251;SDS011;9760;50.944;5.304;2023-02-24T14:55:20;16.83;;;5.33;;
19251;SDS011;9760;50.944;5.304;2023-02-24T14:57:57;18.60;;;4.67;;
19251;SDS011;9760;50.944;5.304;2023-02-24T15:00:28;18.33;;;4.27;;
19251;SDS011;9760;50.944;5.304;2023-02-24T15:02:56;16.73;;;5.47;;
19251;SDS011;9760;50.944;5.304;2023-02-24T15:05:28;16.73;;;5.80;;
19251;SDS011;9760;50.944;5.304;2023-02-24T15:07:54;17.67;;;6.00;;
19251;SDS011;9760;50.944;5.304;2023-02-24T15:10:24;22.83;;;6.10;;
19251;SDS011;9760;50.944;5.304;2023-02-24T15:13:15;18.07;;;6.30;;
19251;SDS011;9760;50.944;5.304;2023-02-24T15:15:41;15.90;;;5.70;;
19251;SDS011;9760;50.944;5.304;2023-02-24T15:18:13;21.67;;;6.27;;
19251;SDS011;9760;50.944;5.304;2023-02-24T15:20:58;22.13;;;6.63;;
19251;SDS011;9760;50.944;5.304;2023-02-24T15:23:28;24.30;;;8.17;;
19251;SDS011;9760;50.944;5.304;2023-02-24T15:25:59;19.50;;;7.60;;
19251;SDS011;9760;50.944;5.304;2023-02-24T15:28:33;20.17;;;6.23;;
19251;SDS011;9760;50.944;5.304;2023-02-24T15:31:01;18.33;;;6.73;;
19251;SDS011;9760;50.944;5.304;2023-02-24T15:33:40;21.30;;;6.87;;
19251;SDS011;9760;50.944;5.304;2023-02-24T15:36:11;24.20;;;7.00;;
19251;SDS011;9760;50.944;5.304;2023-02-24T15:38:42;18.90;;;6.63;;
19251;SDS011;9760;50.944;5.304;2023-02-24T15:41:09;18.30;;;7.40;;
19251;SDS011;9760;50.944;5.304;2023-02-24T15:46:29;20.57;;;8.03;;
19251;SDS011;9760;50.944;5.304;2023-02-24T15:48:56;20.03;;;7.57;;
19251;SDS011;9760;50.944;5.304;2023-02-24T15:54:12;18.40;;;6.67;;
19251;SDS011;9760;50.944;5.304;2023-02-24T15:56:41;24.90;;;7.33;;
19251;SDS011;9760;50.944;5.304;2023-02-24T15:59:09;25.43;;;7.50;;
19251;SDS011;9760;50.944;5.304;2023-02-24T16:01:38;15.20;;;7.10;;
19251;SDS011;9760;50.944;5.304;2023-02-24T16:04:04;23.30;;;7.97;;
19251;SDS011;9760;50.944;5.304;2023-02-24T16:06:33;23.37;;;8.43;;
19251;SDS011;9760;50.944;5.304;2023-02-24T16:09:05;21.93;;;7.60;;
19251;SDS011;9760;50.944;5.304;2023-02-24T16:11:32;20.90;;;8.20;;
19251;SDS011;9760;50.944;5.304;2023-02-24T16:14:02;22.03;;;9.67;;
19251;SDS011;9760;50.944;5.304;2023-02-24T16:16:28;26.97;;;9.97;;
19251;SDS011;9760;50.944;5.304;2023-02-24T16:18:55;34.03;;;9.93;;
19251;SDS011;9760;50.944;5.304;2023-02-24T16:21:21;25.90;;;10.60;;
19251;SDS011;9760;50.944;5.304;2023-02-24T16:23:47;17.67;;;9.87;;
19251;SDS011;9760;50.944;5.304;2023-02-24T16:26:16;24.37;;;10.50;;
19251;SDS011;9760;50.944;5.304;2023-02-24T16:28:50;25.30;;;10.17;;
19251;SDS011;9760;50.944;5.304;2023-02-24T16:31:19;25.60;;;10.80;;
19251;SDS011;9760;50.944;5.304;2023-02-24T16:33:45;32.10;;;12.80;;
19251;SDS011;9760;50.944;5.304;2023-02-24T16:36:11;30.37;;;12.67;;
19251;SDS011;9760;50.944;5.304;2023-02-24T16:38:37;34.60;;;13.23;;
19251;SDS011;9760;50.944;5.304;2023-02-24T16:41:03;30.90;;;12.90;;
19251;SDS011;9760;50.944;5.304;2023-02-24T16:43:29;32.17;;;12.13;;
19251;SDS011;9760;50.944;5.304;2023-02-24T16:45:59;32.13;;;13.73;;
19251;SDS011;9760;50.944;5.304;2023-02-24T16:48:26;34.33;;;13.57;;
19251;SDS011;9760;50.944;5.304;2023-02-24T16:50:53;35.37;;;13.07;;
19251;SDS011;9760;50.944;5.304;2023-02-24T16:53:20;37.33;;;14.70;;
19251;SDS011;9760;50.944;5.304;2023-02-24T16:55:47;30.17;;;13.80;;
19251;SDS011;9760;50.944;5.304;2023-02-24T16:58:14;28.37;;;12.87;;
19251;SDS011;9760;50.944;5.304;2023-02-24T17:00:40;27.23;;;13.87;;
19251;SDS011;9760;50.944;5.304;2023-02-24T17:05:43;33.57;;;13.37;;
19251;SDS011;9760;50.944;5.304;2023-02-24T17:08:09;28.03;;;13.70;;
19251;SDS011;9760;50.944;5.304;2023-02-24T17:10:35;35.73;;;13.40;;
19251;SDS011;9760;50.944;5.304;2023-02-24T17:13:06;29.90;;;13.17;;
19251;SDS011;9760;50.944;5.304;2023-02-24T17:15:34;33.70;;;14.47;;
19251;SDS011;9760;50.944;5.304;2023-02-24T17:17:59;34.10;;;13.17;;
19251;SDS011;9760;50.944;5.304;2023-02-24T17:20:25;33.93;;;13.43;;
19251;SDS011;9760;50.944;5.304;2023-02-24T17:22:52;26.97;;;13.10;;
19251;SDS011;9760;50.944;5.304;2023-02-24T17:25:19;27.60;;;13.13;;
19251;SDS011;9760;50.944;5.304;2023-02-24T17:27:49;28.53;;;12.50;;
19251;SDS011;9760;50.944;5.304;2023-02-24T17:30:19;29.90;;;11.93;;
19251;SDS011;9760;50.944;5.304;2023-02-24T17:32:47;44.27;;;14.10;;
19251;SDS011;9760;50.944;5.304;2023-02-24T17:35:13;34.87;;;13.37;;
19251;SDS011;9760;50.944;5.304;2023-02-24T17:37:39;39.23;;;14.77;;
19251;SDS011;9760;50.944;5.304;2023-02-24T17:40:04;39.47;;;13.03;;
19251;SDS011;9760;50.944;5.304;2023-02-24T17:42:30;29.40;;;13.07;;
19251;SDS011;9760;50.944;5.304;2023-02-24T17:44:57;36.87;;;14.30;;
19251;SDS011;9760;50.944;5.304;2023-02-24T17:47:23;37.13;;;13.37;;
19251;SDS011;9760;50.944;5.304;2023-02-24T17:49:48;38.43;;;14.63;;
19251;SDS011;9760;50.944;5.304;2023-02-24T17:52:14;39.87;;;15.40;;